sensor_id;sensor_type;location;lat;lon;timestamp;temperature;humidity
6843;DHT22;3460;52.028;8.916;2023-03-23T00:00:59;12.10;1.00
6843;DHT22;3460;52.028;8.916;2023-03-23T00:03:26;12.10;1.00
6843;DHT22;3460;52.028;8.916;2023-03-23T00:05:54;12.10;99.90
6843;DHT22;3460;52.028;8.916;2023-03-23T00:08:25;12.10;1.00
6843;DHT22;3460;52.028;8.916;2023-03-23T00:10:54;12.10;1.00
6843;DHT22;3460;52.028;8.916;2023-03-23T00:13:22;12.10;1.00
6843;DHT22;3460;52.028;8.916;2023-03-23T00:15:50;12.00;1.00
6843;DHT22;3460;52.028;8.916;2023-03-23T00:18:18;12.10;99.90
6843;DHT22;3460;52.028;8.916;2023-03-23T00:20:48;12.10;1.00
6843;DHT22;3460;52.028;8.916;2023-03-23T00:23:15;12.10;80.20
6843;DHT22;3460;52.028;8.916;2023-03-23T00:25:45;12.20;99.90
6843;DHT22;3460;52.028;8.916;2023-03-23T00:28:14;12.10;1.00
6843;DHT22;3460;52.028;8.916;2023-03-23T00:30:41;12.10;99.90
6843;DHT22;3460;52.028;8.916;2023-03-23T00:33:10;12.10;1.00
6843;DHT22;3460;52.028;8.916;2023-03-23T00:35:38;12.10;1.00
6843;DHT22;3460;52.028;8.916;2023-03-23T00:38:05;12.00;99.90
6843;DHT22;3460;52.028;8.916;2023-03-23T00:40:33;12.00;99.90
6843;DHT22;3460;52.028;8.916;2023-03-23T00:43:01;12.00;1.00
6843;DHT22;3460;52.028;8.916;2023-03-23T00:45:30;12.00;1.00
6843;DHT22;3460;52.028;8.916;2023-03-23T00:48:00;12.00;26.10
6843;DHT22;3460;52.028;8.916;2023-03-23T00:50:27;12.00;99.90
6843;DHT22;3460;52.028;8.916;2023-03-23T00:52:54;11.90;99.90
6843;DHT22;3460;52.028;8.916;2023-03-23T00:55:22;11.90;99.90
6843;DHT22;3460;52.028;8.916;2023-03-23T00:57:49;11.90;1.00
6843;DHT22;3460;52.028;8.916;2023-03-23T01:00:17;11.90;1.00
6843;DHT22;3460;52.028;8.916;2023-03-23T01:02:45;11.90;1.00
6843;DHT22;3460;52.028;8.916;2023-03-23T01:05:12;11.80;1.00
6843;DHT22;3460;52.028;8.916;2023-03-23T01:07:40;11.70;26.20
6843;DHT22;3460;52.028;8.916;2023-03-23T01:10:08;11.60;84.20
6843;DHT22;3460;52.028;8.916;2023-03-23T01:12:34;11.60;99.90
6843;DHT22;3460;52.028;8.916;2023-03-23T01:15:01;11.60;99.90
6843;DHT22;3460;52.028;8.916;2023-03-23T01:17:28;11.50;99.90
6843;DHT22;3460;52.028;8.916;2023-03-23T01:19:56;11.50;90.80
6843;DHT22;3460;52.028;8.916;2023-03-23T01:22:23;11.50;99.90
6843;DHT22;3460;52.028;8.916;2023-03-23T01:24:50;11.50;99.90
6843;DHT22;3460;52.028;8.916;2023-03-23T01:27:17;11.50;98.50
6843;DHT22;3460;52.028;8.916;2023-03-23T01:29:44;11.60;99.90
6843;DHT22;3460;52.028;8.916;2023-03-23T01:32:10;11.60;1.00
6843;DHT22;3460;52.028;8.916;2023-03-23T01:34:37;11.60;1.00
6843;DHT22;3460;52.028;8.916;2023-03-23T01:37:05;11.60;1.00
6843;DHT22;3460;52.028;8.916;2023-03-23T01:39:32;11.60;1.00
6843;DHT22;3460;52.028;8.916;2023-03-23T01:41:59;11.70;1.00
6843;DHT22;3460;52.028;8.916;2023-03-23T01:47:41;11.80;99.90
6843;DHT22;3460;52.028;8.916;2023-03-23T01:50:08;11.80;99.90
6843;DHT22;3460;52.028;8.916;2023-03-23T01:52:37;11.80;1.00
6843;DHT22;3460;52.028;8.916;2023-03-23T01:55:05;11.80;1.00
6843;DHT22;3460;52.028;8.916;2023-03-23T01:57:32;11.90;99.90
6843;DHT22;3460;52.028;8.916;2023-03-23T02:00:03;12.00;1.00
6843;DHT22;3460;52.028;8.916;2023-03-23T02:02:36;12.00;1.00
6843;DHT22;3460;52.028;8.916;2023-03-23T02:05:11;12.00;99.90
6843;DHT22;3460;52.028;8.916;2023-03-23T02:07:40;11.90;99.90
6843;DHT22;3460;52.028;8.916;2023-03-23T02:10:08;11.90;99.90
6843;DHT22;3460;52.028;8.916;2023-03-23T02:12:35;11.90;1.00
6843;DHT22;3460;52.028;8.916;2023-03-23T02:15:02;11.90;1.00
6843;DHT22;3460;52.028;8.916;2023-03-23T02:17:35;11.80;99.90
6843;DHT22;3460;52.028;8.916;2023-03-23T02:20:21;11.80;99.90
6843;DHT22;3460;52.028;8.916;2023-03-23T02:23:16;11.80;1.00
6843;DHT22;3460;52.028;8.916;2023-03-23T02:25:58;11.80;1.00
6843;DHT22;3460;52.028;8.916;2023-03-23T02:28:36;11.70;1.00
6843;DHT22;3460;52.028;8.916;2023-03-23T02:31:19;11.80;1.00
6843;DHT22;3460;52.028;8.916;2023-03-23T02:33:54;11.80;1.00
6843;DHT22;3460;52.028;8.916;2023-03-23T02:36:28;11.70;1.00
6843;DHT22;3460;52.028;8.916;2023-03-23T02:39:02;11.80;99.90
6843;DHT22;3460;52.028;8.916;2023-03-23T02:41:33;11.70;1.00
6843;DHT22;3460;52.028;8.916;2023-03-23T02:44:03;11.70;1.00
6843;DHT22;3460;52.028;8.916;2023-03-23T02:46:31;11.70;1.00
6843;DHT22;3460;52.028;8.916;2023-03-23T02:49:01;11.70;1.00
6843;DHT22;3460;52.028;8.916;2023-03-23T02:51:29;11.70;1.00
6843;DHT22;3460;52.028;8.916;2023-03-23T02:53:57;11.70;1.00
6843;DHT22;3460;52.028;8.916;2023-03-23T02:56:26;11.70;1.00
6843;DHT22;3460;52.028;8.916;2023-03-23T02:58:54;11.60;52.40
6843;DHT22;3460;52.028;8.916;2023-03-23T03:01:55;11.60;99.90
6843;DHT22;3460;52.028;8.916;2023-03-23T03:04:25;11.60;99.90
6843;DHT22;3460;52.028;8.916;2023-03-23T03:10:02;11.50;99.90
6843;DHT22;3460;52.028;8.916;2023-03-23T03:12:36;11.40;99.90
6843;DHT22;3460;52.028;8.916;2023-03-23T03:15:13;11.40;99.90
6843;DHT22;3460;52.028;8.916;2023-03-23T03:17:48;11.30;99.90
6843;DHT22;3460;52.028;8.916;2023-03-23T03:20:19;11.30;99.90
6843;DHT22;3460;52.028;8.916;2023-03-23T03:22:47;11.30;99.90
6843;DHT22;3460;52.028;8.916;2023-03-23T03:25:15;11.30;99.90
6843;DHT22;3460;52.028;8.916;2023-03-23T03:27:44;11.20;99.90
6843;DHT22;3460;52.028;8.916;2023-03-23T03:30:18;11.20;99.90
6843;DHT22;3460;52.028;8.916;2023-03-23T03:32:49;11.20;97.40
6843;DHT22;3460;52.028;8.916;2023-03-23T03:35:20;11.20;99.90
6843;DHT22;3460;52.028;8.916;2023-03-23T03:37:48;11.20;97.60
6843;DHT22;3460;52.028;8.916;2023-03-23T03:40:18;11.20;84.70
6843;DHT22;3460;52.028;8.916;2023-03-23T03:42:46;11.20;86.70
6843;DHT22;3460;52.028;8.916;2023-03-23T03:45:15;11.20;88.20
6843;DHT22;3460;52.028;8.916;2023-03-23T03:47:42;11.20;31.60
6843;DHT22;3460;52.028;8.916;2023-03-23T03:50:10;11.20;90.00
6843;DHT22;3460;52.028;8.916;2023-03-23T03:52:38;11.20;14.30
6843;DHT22;3460;52.028;8.916;2023-03-23T03:55:07;11.20;99.90
6843;DHT22;3460;52.028;8.916;2023-03-23T03:57:34;11.20;39.00
6843;DHT22;3460;52.028;8.916;2023-03-23T04:00:02;11.20;31.50
6843;DHT22;3460;52.028;8.916;2023-03-23T04:02:38;11.20;30.70
6843;DHT22;3460;52.028;8.916;2023-03-23T04:05:06;11.30;69.40
6843;DHT22;3460;52.028;8.916;2023-03-23T04:07:34;11.30;24.40
6843;DHT22;3460;52.028;8.916;2023-03-23T04:10:05;11.30;30.30
6843;DHT22;3460;52.028;8.916;2023-03-23T04:12:32;11.30;9.10
6843;DHT22;3460;52.028;8.916;2023-03-23T04:14:59;11.30;1.00
6843;DHT22;3460;52.028;8.916;2023-03-23T04:17:26;11.30;1.00
6843;DHT22;3460;52.028;8.916;2023-03-23T04:19:53;11.30;1.00
6843;DHT22;3460;52.028;8.916;2023-03-23T04:22:22;11.40;1.00
6843;DHT22;3460;52.028;8.916;2023-03-23T04:24:56;11.30;1.00
6843;DHT22;3460;52.028;8.916;2023-03-23T04:27:25;11.30;1.00
6843;DHT22;3460;52.028;8.916;2023-03-23T04:29:54;11.40;1.00
6843;DHT22;3460;52.028;8.916;2023-03-23T04:32:21;11.30;1.00
6843;DHT22;3460;52.028;8.916;2023-03-23T04:34:50;11.30;1.00
6843;DHT22;3460;52.028;8.916;2023-03-23T04:37:17;11.40;99.90
6843;DHT22;3460;52.028;8.916;2023-03-23T04:39:44;11.40;99.90
6843;DHT22;3460;52.028;8.916;2023-03-23T04:42:11;11.30;99.90
6843;DHT22;3460;52.028;8.916;2023-03-23T04:44:40;11.40;99.90
6843;DHT22;3460;52.028;8.916;2023-03-23T04:47:08;11.40;99.90
6843;DHT22;3460;52.028;8.916;2023-03-23T04:49:36;11.40;99.90
6843;DHT22;3460;52.028;8.916;2023-03-23T04:52:03;11.40;1.00
6843;DHT22;3460;52.028;8.916;2023-03-23T04:54:31;11.50;1.00
6843;DHT22;3460;52.028;8.916;2023-03-23T04:56:58;11.50;25.60
6843;DHT22;3460;52.028;8.916;2023-03-23T04:59:25;11.50;1.00
6843;DHT22;3460;52.028;8.916;2023-03-23T05:01:54;11.50;1.00
6843;DHT22;3460;52.028;8.916;2023-03-23T05:04:21;11.50;1.00
6843;DHT22;3460;52.028;8.916;2023-03-23T05:06:50;11.50;1.00
6843;DHT22;3460;52.028;8.916;2023-03-23T05:09:18;11.50;1.00
6843;DHT22;3460;52.028;8.916;2023-03-23T05:11:45;11.50;99.90
6843;DHT22;3460;52.028;8.916;2023-03-23T05:14:12;11.40;92.40
6843;DHT22;3460;52.028;8.916;2023-03-23T05:16:39;11.50;1.00
6843;DHT22;3460;52.028;8.916;2023-03-23T05:19:07;11.50;23.50
6843;DHT22;3460;52.028;8.916;2023-03-23T05:21:34;11.50;99.90
6843;DHT22;3460;52.028;8.916;2023-03-23T05:24:02;11.50;1.00
6843;DHT22;3460;52.028;8.916;2023-03-23T05:26:29;11.50;99.90
6843;DHT22;3460;52.028;8.916;2023-03-23T05:28:56;11.50;1.00
6843;DHT22;3460;52.028;8.916;2023-03-23T05:31:24;11.60;99.90
6843;DHT22;3460;52.028;8.916;2023-03-23T05:33:52;11.60;99.90
6843;DHT22;3460;52.028;8.916;2023-03-23T05:36:20;11.60;99.90
6843;DHT22;3460;52.028;8.916;2023-03-23T05:38:48;11.70;99.90
6843;DHT22;3460;52.028;8.916;2023-03-23T05:41:17;11.70;1.00
6843;DHT22;3460;52.028;8.916;2023-03-23T05:43:43;11.70;99.90
6843;DHT22;3460;52.028;8.916;2023-03-23T05:46:10;11.70;1.00
6843;DHT22;3460;52.028;8.916;2023-03-23T05:48:37;11.70;99.90
6843;DHT22;3460;52.028;8.916;2023-03-23T05:51:04;11.70;1.00
6843;DHT22;3460;52.028;8.916;2023-03-23T05:53:32;11.70;72.10
6843;DHT22;3460;52.028;8.916;2023-03-23T05:56:01;11.70;1.00
6843;DHT22;3460;52.028;8.916;2023-03-23T05:58:28;11.70;99.90
6843;DHT22;3460;52.028;8.916;2023-03-23T06:00:56;11.70;1.00
6843;DHT22;3460;52.028;8.916;2023-03-23T06:03:22;11.70;1.00
6843;DHT22;3460;52.028;8.916;2023-03-23T06:05:49;11.70;1.00
6843;DHT22;3460;52.028;8.916;2023-03-23T06:08:16;11.80;99.90
6843;DHT22;3460;52.028;8.916;2023-03-23T06:10:44;11.80;99.90
6843;DHT22;3460;52.028;8.916;2023-03-23T06:13:11;11.80;99.90
6843;DHT22;3460;52.028;8.916;2023-03-23T06:15:38;11.90;99.90
6843;DHT22;3460;52.028;8.916;2023-03-23T06:18:06;11.90;99.90
6843;DHT22;3460;52.028;8.916;2023-03-23T06:20:33;11.90;99.90
6843;DHT22;3460;52.028;8.916;2023-03-23T06:23:00;11.90;43.40
6843;DHT22;3460;52.028;8.916;2023-03-23T06:25:28;12.00;75.20
6843;DHT22;3460;52.028;8.916;2023-03-23T06:27:57;12.00;77.40
6843;DHT22;3460;52.028;8.916;2023-03-23T06:30:24;12.00;85.80
6843;DHT22;3460;52.028;8.916;2023-03-23T06:32:52;12.00;1.00
6843;DHT22;3460;52.028;8.916;2023-03-23T06:35:19;12.00;99.90
6843;DHT22;3460;52.028;8.916;2023-03-23T06:37:46;12.10;1.00
6843;DHT22;3460;52.028;8.916;2023-03-23T06:40:13;12.10;99.90
6843;DHT22;3460;52.028;8.916;2023-03-23T06:42:40;12.10;55.50
6843;DHT22;3460;52.028;8.916;2023-03-23T06:45:10;12.10;99.90
6843;DHT22;3460;52.028;8.916;2023-03-23T06:47:37;12.10;1.00
6843;DHT22;3460;52.028;8.916;2023-03-23T06:50:05;12.10;99.90
6843;DHT22;3460;52.028;8.916;2023-03-23T06:52:33;12.20;99.90
6843;DHT22;3460;52.028;8.916;2023-03-23T06:54:59;12.20;1.00
6843;DHT22;3460;52.028;8.916;2023-03-23T06:57:26;12.30;99.90
6843;DHT22;3460;52.028;8.916;2023-03-23T06:59:53;12.30;99.90
6843;DHT22;3460;52.028;8.916;2023-03-23T07:02:21;12.30;99.90
6843;DHT22;3460;52.028;8.916;2023-03-23T07:04:49;12.30;1.00
6843;DHT22;3460;52.028;8.916;2023-03-23T07:07:16;12.30;99.90
6843;DHT22;3460;52.028;8.916;2023-03-23T07:09:44;12.40;98.90
6843;DHT22;3460;52.028;8.916;2023-03-23T07:12:11;12.40;1.00
6843;DHT22;3460;52.028;8.916;2023-03-23T07:14:37;12.40;1.00
6843;DHT22;3460;52.028;8.916;2023-03-23T07:17:04;12.40;99.90
6843;DHT22;3460;52.028;8.916;2023-03-23T07:19:34;12.40;99.90
6843;DHT22;3460;52.028;8.916;2023-03-23T07:22:01;12.40;99.90
6843;DHT22;3460;52.028;8.916;2023-03-23T07:24:30;12.40;1.00
6843;DHT22;3460;52.028;8.916;2023-03-23T07:26:57;12.50;80.60
6843;DHT22;3460;52.028;8.916;2023-03-23T07:29:24;12.60;99.90
6843;DHT22;3460;52.028;8.916;2023-03-23T07:31:51;12.70;99.90
6843;DHT22;3460;52.028;8.916;2023-03-23T07:34:18;12.70;85.70
6843;DHT22;3460;52.028;8.916;2023-03-23T07:36:46;12.80;69.80
6843;DHT22;3460;52.028;8.916;2023-03-23T07:39:13;12.80;99.90
6843;DHT22;3460;52.028;8.916;2023-03-23T07:41:40;12.80;99.90
6843;DHT22;3460;52.028;8.916;2023-03-23T07:44:07;12.80;1.00
6843;DHT22;3460;52.028;8.916;2023-03-23T07:46:34;12.80;1.00
6843;DHT22;3460;52.028;8.916;2023-03-23T07:49:01;12.80;70.50
6843;DHT22;3460;52.028;8.916;2023-03-23T07:51:31;12.80;99.90
6843;DHT22;3460;52.028;8.916;2023-03-23T07:53:59;12.80;38.80
6843;DHT22;3460;52.028;8.916;2023-03-23T07:56:28;12.90;99.90
6843;DHT22;3460;52.028;8.916;2023-03-23T07:58:55;13.00;1.00
6843;DHT22;3460;52.028;8.916;2023-03-23T08:01:22;13.00;1.00
6843;DHT22;3460;52.028;8.916;2023-03-23T08:03:49;13.10;99.90
6843;DHT22;3460;52.028;8.916;2023-03-23T08:06:16;13.10;81.00
6843;DHT22;3460;52.028;8.916;2023-03-23T08:08:43;13.10;99.90
6843;DHT22;3460;52.028;8.916;2023-03-23T08:11:12;13.10;99.90
6843;DHT22;3460;52.028;8.916;2023-03-23T08:13:40;13.00;91.00
6843;DHT22;3460;52.028;8.916;2023-03-23T08:16:08;13.00;99.90
6843;DHT22;3460;52.028;8.916;2023-03-23T08:18:35;12.90;1.00
6843;DHT22;3460;52.028;8.916;2023-03-23T08:21:02;12.80;99.90
6843;DHT22;3460;52.028;8.916;2023-03-23T08:23:30;12.80;5.70
6843;DHT22;3460;52.028;8.916;2023-03-23T08:25:58;12.80;99.90
6843;DHT22;3460;52.028;8.916;2023-03-23T08:28:26;12.90;99.90
6843;DHT22;3460;52.028;8.916;2023-03-23T08:30:53;13.00;1.00
6843;DHT22;3460;52.028;8.916;2023-03-23T08:33:20;13.00;1.00
6843;DHT22;3460;52.028;8.916;2023-03-23T08:35:54;13.00;38.30
6843;DHT22;3460;52.028;8.916;2023-03-23T08:38:22;13.10;1.00
6843;DHT22;3460;52.028;8.916;2023-03-23T08:40:49;13.10;99.90
6843;DHT22;3460;52.028;8.916;2023-03-23T08:43:16;13.20;1.00
6843;DHT22;3460;52.028;8.916;2023-03-23T08:45:44;13.20;99.90
6843;DHT22;3460;52.028;8.916;2023-03-23T08:48:11;13.20;84.90
6843;DHT22;3460;52.028;8.916;2023-03-23T08:50:38;13.20;99.90
6843;DHT22;3460;52.028;8.916;2023-03-23T08:53:06;13.20;1.00
6843;DHT22;3460;52.028;8.916;2023-03-23T08:55:33;13.20;99.90
6843;DHT22;3460;52.028;8.916;2023-03-23T08:57:59;13.20;99.90
6843;DHT22;3460;52.028;8.916;2023-03-23T09:00:27;13.20;99.90
6843;DHT22;3460;52.028;8.916;2023-03-23T09:02:55;13.30;1.00
6843;DHT22;3460;52.028;8.916;2023-03-23T09:05:25;13.40;1.00
6843;DHT22;3460;52.028;8.916;2023-03-23T09:07:53;13.30;99.90
6843;DHT22;3460;52.028;8.916;2023-03-23T09:10:21;13.30;93.70
6843;DHT22;3460;52.028;8.916;2023-03-23T09:12:51;13.30;1.00
6843;DHT22;3460;52.028;8.916;2023-03-23T09:15:19;13.40;1.00
6843;DHT22;3460;52.028;8.916;2023-03-23T09:17:47;13.40;1.00
6843;DHT22;3460;52.028;8.916;2023-03-23T09:20:17;13.40;1.00
6843;DHT22;3460;52.028;8.916;2023-03-23T09:22:48;13.50;1.00
6843;DHT22;3460;52.028;8.916;2023-03-23T09:25:17;13.40;99.90
6843;DHT22;3460;52.028;8.916;2023-03-23T09:27:45;13.50;99.90
6843;DHT22;3460;52.028;8.916;2023-03-23T09:30:14;13.50;99.90
6843;DHT22;3460;52.028;8.916;2023-03-23T09:32:41;13.50;99.90
6843;DHT22;3460;52.028;8.916;2023-03-23T09:35:09;13.60;99.90
6843;DHT22;3460;52.028;8.916;2023-03-23T09:37:39;13.70;99.90
6843;DHT22;3460;52.028;8.916;2023-03-23T09:40:11;13.90;2.40
6843;DHT22;3460;52.028;8.916;2023-03-23T09:42:55;13.90;1.00
6843;DHT22;3460;52.028;8.916;2023-03-23T09:45:26;14.00;1.00
6843;DHT22;3460;52.028;8.916;2023-03-23T09:48:06;14.00;1.00
6843;DHT22;3460;52.028;8.916;2023-03-23T09:50:40;14.10;99.90
6843;DHT22;3460;52.028;8.916;2023-03-23T09:53:14;14.00;1.00
6843;DHT22;3460;52.028;8.916;2023-03-23T09:55:43;14.00;1.00
6843;DHT22;3460;52.028;8.916;2023-03-23T09:58:16;14.00;99.90
6843;DHT22;3460;52.028;8.916;2023-03-23T10:00:48;14.00;99.90
6843;DHT22;3460;52.028;8.916;2023-03-23T10:03:18;13.90;99.90
6843;DHT22;3460;52.028;8.916;2023-03-23T10:05:47;13.90;1.00
6843;DHT22;3460;52.028;8.916;2023-03-23T10:08:17;13.80;1.00
6843;DHT22;3460;52.028;8.916;2023-03-23T10:10:57;13.80;1.00
6843;DHT22;3460;52.028;8.916;2023-03-23T10:13:39;13.80;1.00
6843;DHT22;3460;52.028;8.916;2023-03-23T10:16:11;13.90;1.00
6843;DHT22;3460;52.028;8.916;2023-03-23T10:18:43;13.90;99.90
6843;DHT22;3460;52.028;8.916;2023-03-23T10:21:13;13.90;99.90
6843;DHT22;3460;52.028;8.916;2023-03-23T10:23:49;14.00;99.90
6843;DHT22;3460;52.028;8.916;2023-03-23T10:26:28;14.00;99.90
6843;DHT22;3460;52.028;8.916;2023-03-23T10:28:58;14.00;99.90
6843;DHT22;3460;52.028;8.916;2023-03-23T10:31:31;14.20;99.90
6843;DHT22;3460;52.028;8.916;2023-03-23T10:34:02;14.40;1.00
6843;DHT22;3460;52.028;8.916;2023-03-23T10:36:34;14.50;1.00
6843;DHT22;3460;52.028;8.916;2023-03-23T10:39:11;14.60;1.00
6843;DHT22;3460;52.028;8.916;2023-03-23T10:41:40;14.80;99.90
6843;DHT22;3460;52.028;8.916;2023-03-23T10:44:10;14.90;99.90
6843;DHT22;3460;52.028;8.916;2023-03-23T10:46:42;15.10;99.90
6843;DHT22;3460;52.028;8.916;2023-03-23T10:49:18;15.20;99.90
6843;DHT22;3460;52.028;8.916;2023-03-23T10:51:50;15.20;99.90
6843;DHT22;3460;52.028;8.916;2023-03-23T10:54:27;15.20;71.40
6843;DHT22;3460;52.028;8.916;2023-03-23T10:56:59;15.30;99.90
6843;DHT22;3460;52.028;8.916;2023-03-23T10:59:28;15.30;99.90
6843;DHT22;3460;52.028;8.916;2023-03-23T11:01:59;15.30;1.00
6843;DHT22;3460;52.028;8.916;2023-03-23T11:04:28;15.20;1.00
6843;DHT22;3460;52.028;8.916;2023-03-23T11:06:59;15.10;35.20
6843;DHT22;3460;52.028;8.916;2023-03-23T11:09:37;15.00;1.00
6843;DHT22;3460;52.028;8.916;2023-03-23T11:12:15;14.90;1.00
6843;DHT22;3460;52.028;8.916;2023-03-23T11:14:42;14.90;1.00
6843;DHT22;3460;52.028;8.916;2023-03-23T11:17:21;14.80;2.70
6843;DHT22;3460;52.028;8.916;2023-03-23T11:19:48;14.70;78.30
6843;DHT22;3460;52.028;8.916;2023-03-23T11:22:19;14.60;99.90
6843;DHT22;3460;52.028;8.916;2023-03-23T11:24:52;14.60;99.90
6843;DHT22;3460;52.028;8.916;2023-03-23T11:27:21;14.50;99.90
6843;DHT22;3460;52.028;8.916;2023-03-23T11:29:50;14.40;99.90
6843;DHT22;3460;52.028;8.916;2023-03-23T11:32:18;14.30;1.00
6843;DHT22;3460;52.028;8.916;2023-03-23T11:34:52;14.20;1.00
6843;DHT22;3460;52.028;8.916;2023-03-23T11:37:32;14.00;99.90
6843;DHT22;3460;52.028;8.916;2023-03-23T11:40:10;13.50;99.90
6843;DHT22;3460;52.028;8.916;2023-03-23T11:42:44;13.10;99.90
6843;DHT22;3460;52.028;8.916;2023-03-23T11:45:17;12.40;1.00
6843;DHT22;3460;52.028;8.916;2023-03-23T11:47:53;12.30;1.00
6843;DHT22;3460;52.028;8.916;2023-03-23T11:50:24;12.00;99.90
6843;DHT22;3460;52.028;8.916;2023-03-23T11:52:55;11.90;1.00
6843;DHT22;3460;52.028;8.916;2023-03-23T11:55:28;11.70;99.90
6843;DHT22;3460;52.028;8.916;2023-03-23T11:57:55;11.60;1.00
6843;DHT22;3460;52.028;8.916;2023-03-23T12:00:27;11.50;1.00
6843;DHT22;3460;52.028;8.916;2023-03-23T12:03:12;11.40;1.00
6843;DHT22;3460;52.028;8.916;2023-03-23T12:05:46;11.40;74.50
6843;DHT22;3460;52.028;8.916;2023-03-23T12:08:36;11.30;16.10
6843;DHT22;3460;52.028;8.916;2023-03-23T12:11:13;11.20;99.90
6843;DHT22;3460;52.028;8.916;2023-03-23T12:13:49;11.20;79.20
6843;DHT22;3460;52.028;8.916;2023-03-23T12:16:33;11.20;1.00
6843;DHT22;3460;52.028;8.916;2023-03-23T12:19:07;11.20;15.60
6843;DHT22;3460;52.028;8.916;2023-03-23T12:21:43;11.20;1.00
6843;DHT22;3460;52.028;8.916;2023-03-23T12:24:25;11.40;1.00
6843;DHT22;3460;52.028;8.916;2023-03-23T12:27:02;11.40;1.00
6843;DHT22;3460;52.028;8.916;2023-03-23T12:29:42;11.30;1.00
6843;DHT22;3460;52.028;8.916;2023-03-23T12:32:27;11.30;1.00
6843;DHT22;3460;52.028;8.916;2023-03-23T12:35:04;11.20;99.90
6843;DHT22;3460;52.028;8.916;2023-03-23T12:37:44;11.20;38.20
6843;DHT22;3460;52.028;8.916;2023-03-23T12:43:13;11.20;1.00
6843;DHT22;3460;52.028;8.916;2023-03-23T12:46:05;11.30;99.90
6843;DHT22;3460;52.028;8.916;2023-03-23T12:48:39;11.20;1.00
6843;DHT22;3460;52.028;8.916;2023-03-23T12:51:14;11.20;99.90
6843;DHT22;3460;52.028;8.916;2023-03-23T12:53:49;11.20;99.90
6843;DHT22;3460;52.028;8.916;2023-03-23T12:56:21;11.20;1.00
6843;DHT22;3460;52.028;8.916;2023-03-23T12:59:01;11.20;99.90
6843;DHT22;3460;52.028;8.916;2023-03-23T13:01:32;11.20;99.90
6843;DHT22;3460;52.028;8.916;2023-03-23T13:04:01;11.20;1.00
6843;DHT22;3460;52.028;8.916;2023-03-23T13:06:33;11.20;99.90
6843;DHT22;3460;52.028;8.916;2023-03-23T13:09:05;11.20;99.90
6843;DHT22;3460;52.028;8.916;2023-03-23T13:11:35;11.30;1.00
6843;DHT22;3460;52.028;8.916;2023-03-23T13:14:13;11.30;99.90
6843;DHT22;3460;52.028;8.916;2023-03-23T13:16:47;11.30;1.00
6843;DHT22;3460;52.028;8.916;2023-03-23T13:19:22;11.30;1.00
6843;DHT22;3460;52.028;8.916;2023-03-23T13:21:55;11.30;1.00
6843;DHT22;3460;52.028;8.916;2023-03-23T13:24:27;11.30;99.90
6843;DHT22;3460;52.028;8.916;2023-03-23T13:26:55;11.20;1.00
6843;DHT22;3460;52.028;8.916;2023-03-23T13:29:25;11.20;1.00
6843;DHT22;3460;52.028;8.916;2023-03-23T13:32:04;11.20;1.00
6843;DHT22;3460;52.028;8.916;2023-03-23T13:34:32;11.10;48.10
6843;DHT22;3460;52.028;8.916;2023-03-23T13:37:01;11.20;99.60
6843;DHT22;3460;52.028;8.916;2023-03-23T13:39:30;11.10;99.90
6843;DHT22;3460;52.028;8.916;2023-03-23T13:42:03;11.20;99.90
6843;DHT22;3460;52.028;8.916;2023-03-23T13:44:44;11.20;99.90
6843;DHT22;3460;52.028;8.916;2023-03-23T13:47:27;11.20;99.90
6843;DHT22;3460;52.028;8.916;2023-03-23T13:49:59;11.20;99.90
6843;DHT22;3460;52.028;8.916;2023-03-23T13:52:37;11.10;99.90
6843;DHT22;3460;52.028;8.916;2023-03-23T13:55:19;11.10;99.90
6843;DHT22;3460;52.028;8.916;2023-03-23T13:57:51;11.10;99.90
6843;DHT22;3460;52.028;8.916;2023-03-23T14:00:44;11.10;99.90
6843;DHT22;3460;52.028;8.916;2023-03-23T14:03:15;11.10;99.90
6843;DHT22;3460;52.028;8.916;2023-03-23T14:05:44;11.00;99.90
6843;DHT22;3460;52.028;8.916;2023-03-23T14:08:14;11.00;99.90
6843;DHT22;3460;52.028;8.916;2023-03-23T14:10:51;11.00;99.90
6843;DHT22;3460;52.028;8.916;2023-03-23T14:13:21;11.00;99.90
6843;DHT22;3460;52.028;8.916;2023-03-23T14:15:59;10.90;99.90
6843;DHT22;3460;52.028;8.916;2023-03-23T14:18:31;10.90;99.90
6843;DHT22;3460;52.028;8.916;2023-03-23T14:20:59;10.90;99.90
6843;DHT22;3460;52.028;8.916;2023-03-23T14:23:26;10.90;99.90
6843;DHT22;3460;52.028;8.916;2023-03-23T14:25:59;11.00;99.90
6843;DHT22;3460;52.028;8.916;2023-03-23T14:28:31;11.00;99.90
6843;DHT22;3460;52.028;8.916;2023-03-23T14:31:00;11.10;99.90
6843;DHT22;3460;52.028;8.916;2023-03-23T14:33:27;11.20;99.90
6843;DHT22;3460;52.028;8.916;2023-03-23T14:35:57;11.20;99.90
6843;DHT22;3460;52.028;8.916;2023-03-23T14:38:25;11.20;99.90
6843;DHT22;3460;52.028;8.916;2023-03-23T14:41:00;11.40;99.90
6843;DHT22;3460;52.028;8.916;2023-03-23T14:43:29;11.40;99.90
6843;DHT22;3460;52.028;8.916;2023-03-23T14:46:01;11.40;99.90
6843;DHT22;3460;52.028;8.916;2023-03-23T14:48:32;11.40;99.90
6843;DHT22;3460;52.028;8.916;2023-03-23T14:51:00;11.40;99.90
6843;DHT22;3460;52.028;8.916;2023-03-23T14:53:32;11.40;99.90
6843;DHT22;3460;52.028;8.916;2023-03-23T14:56:02;11.40;99.90
6843;DHT22;3460;52.028;8.916;2023-03-23T14:58:30;11.40;99.90
6843;DHT22;3460;52.028;8.916;2023-03-23T15:00:59;11.40;99.90
6843;DHT22;3460;52.028;8.916;2023-03-23T15:03:31;11.50;99.90
6843;DHT22;3460;52.028;8.916;2023-03-23T15:06:02;11.50;99.90
6843;DHT22;3460;52.028;8.916;2023-03-23T15:08:32;11.60;99.90
6843;DHT22;3460;52.028;8.916;2023-03-23T15:11:06;11.60;99.90
6843;DHT22;3460;52.028;8.916;2023-03-23T15:13:35;11.70;99.90
6843;DHT22;3460;52.028;8.916;2023-03-23T15:16:05;11.70;99.90
6843;DHT22;3460;52.028;8.916;2023-03-23T15:18:37;11.80;99.90
6843;DHT22;3460;52.028;8.916;2023-03-23T15:21:18;11.80;99.90
6843;DHT22;3460;52.028;8.916;2023-03-23T15:23:45;12.00;99.90
6843;DHT22;3460;52.028;8.916;2023-03-23T15:26:32;12.10;99.90
6843;DHT22;3460;52.028;8.916;2023-03-23T15:29:11;12.10;99.90
6843;DHT22;3460;52.028;8.916;2023-03-23T15:31:40;12.10;99.90
6843;DHT22;3460;52.028;8.916;2023-03-23T15:34:17;12.10;99.90
6843;DHT22;3460;52.028;8.916;2023-03-23T15:36:46;12.10;99.90
6843;DHT22;3460;52.028;8.916;2023-03-23T15:39:16;12.10;99.90
6843;DHT22;3460;52.028;8.916;2023-03-23T15:41:48;12.00;99.90
6843;DHT22;3460;52.028;8.916;2023-03-23T15:44:28;12.10;99.90
6843;DHT22;3460;52.028;8.916;2023-03-23T15:47:10;12.00;99.90
6843;DHT22;3460;52.028;8.916;2023-03-23T15:49:40;12.00;99.90
6843;DHT22;3460;52.028;8.916;2023-03-23T15:52:10;12.00;99.90
6843;DHT22;3460;52.028;8.916;2023-03-23T15:54:37;12.10;99.90
6843;DHT22;3460;52.028;8.916;2023-03-23T15:57:05;12.00;99.90
6843;DHT22;3460;52.028;8.916;2023-03-23T15:59:32;12.00;99.90
6843;DHT22;3460;52.028;8.916;2023-03-23T16:01:59;12.00;99.90
6843;DHT22;3460;52.028;8.916;2023-03-23T16:04:26;12.00;99.90
6843;DHT22;3460;52.028;8.916;2023-03-23T16:06:56;12.00;99.90
6843;DHT22;3460;52.028;8.916;2023-03-23T16:09:24;12.10;99.90
6843;DHT22;3460;52.028;8.916;2023-03-23T16:11:51;12.10;99.90
6843;DHT22;3460;52.028;8.916;2023-03-23T16:14:17;12.10;99.90
6843;DHT22;3460;52.028;8.916;2023-03-23T16:16:46;12.10;99.90
6843;DHT22;3460;52.028;8.916;2023-03-23T16:19:15;12.10;99.90
6843;DHT22;3460;52.028;8.916;2023-03-23T16:21:42;12.20;99.90
6843;DHT22;3460;52.028;8.916;2023-03-23T16:24:10;12.30;99.90
6843;DHT22;3460;52.028;8.916;2023-03-23T16:26:37;12.30;99.90
6843;DHT22;3460;52.028;8.916;2023-03-23T16:29:10;12.30;99.90
6843;DHT22;3460;52.028;8.916;2023-03-23T16:31:38;12.30;99.90
6843;DHT22;3460;52.028;8.916;2023-03-23T16:34:05;12.30;99.90
6843;DHT22;3460;52.028;8.916;2023-03-23T16:36:32;12.20;99.90